Time;durP1;ratioP1;P1;durP2;ratioP2;P2;SDS_P1;SDS_P2;PMS_P1;PMS_P2;Temp;Humidity;BMP_temperature;BMP_pressure;BME280_temperature;BME280_humidity;BME280_pressure;Samples;Min_cycle;Max_cycle;Signal;HPM_P1;HPM_P2
2021/12/03 00:00:50;;;;;;;202.15;97.70;;;25.90;85.00;;;;;;5076400;28;20121;-56
2021/12/03 00:03:18;;;;;;;198.10;95.57;;;26.00;84.40;;;;;;5076241;28;20021;-59
2021/12/03 00:05:46;;;;;;;222.50;102.60;;;26.10;84.80;;;;;;5075930;28;20032;-59
2021/12/03 00:08:13;;;;;;;205.93;94.47;;;26.10;84.90;;;;;;5074934;28;20123;-57
2021/12/03 00:10:43;;;;;;;190.32;90.25;;;26.20;84.50;;;;;;5074490;28;20024;-55
2021/12/03 00:13:11;;;;;;;172.98;88.03;;;26.20;84.30;;;;;;5075905;28;20036;-54
2021/12/03 00:15:38;;;;;;;196.55;95.47;;;26.20;84.40;;;;;;5075864;28;20028;-60
2021/12/03 00:18:06;;;;;;;191.10;96.05;;;26.20;84.40;;;;;;5075777;28;20055;-58
2021/12/03 00:20:36;;;;;;;187.88;95.10;;;26.30;84.40;;;;;;5075858;28;20031;-58
2021/12/03 00:23:05;;;;;;;187.50;90.45;;;26.20;84.40;;;;;;5075666;28;20016;-57
2021/12/03 00:25:40;;;;;;;205.75;97.28;;;26.10;84.70;;;;;;5075759;28;20132;-57
2021/12/03 00:28:08;;;;;;;157.10;76.55;;;26.10;85.00;;;;;;5073754;28;20017;-57
2021/12/03 00:30:37;;;;;;;184.10;88.80;;;26.10;84.90;;;;;;5074588;28;20059;-58
2021/12/03 00:33:06;;;;;;;164.43;80.50;;;26.10;85.10;;;;;;5075655;28;20108;-58
2021/12/03 00:35:34;;;;;;;192.05;92.35;;;26.20;85.30;;;;;;5075267;28;20108;-59
2021/12/03 00:38:03;;;;;;;160.00;83.13;;;26.10;85.10;;;;;;5074844;28;20035;-60
2021/12/03 00:40:39;;;;;;;166.52;84.05;;;26.10;85.20;;;;;;5074067;28;20427;-60
2021/12/03 00:43:08;;;;;;;169.65;84.90;;;26.10;85.70;;;;;;5075107;28;20028;-59
2021/12/03 00:45:36;;;;;;;175.63;87.20;;;26.00;85.80;;;;;;5075070;28;20366;-58
2021/12/03 00:48:04;;;;;;;143.52;71.90;;;26.00;86.10;;;;;;5074846;28;20017;-59
2021/12/03 00:50:32;;;;;;;163.10;82.28;;;25.90;86.20;;;;;;5074673;28;20056;-59
2021/12/03 00:53:01;;;;;;;158.00;78.03;;;25.90;86.40;;;;;;5074503;28;20436;-54
2021/12/03 00:55:30;;;;;;;169.05;84.60;;;25.90;86.80;;;;;;5074251;28;20087;-53
2021/12/03 00:57:58;;;;;;;142.00;72.60;;;25.80;87.00;;;;;;5074435;28;20024;-58
2021/12/03 01:00:29;;;;;;;142.18;70.28;;;25.80;87.20;;;;;;5072221;28;20051;-57
2021/12/03 01:02:58;;;;;;;145.13;68.57;;;25.80;87.40;;;;;;5075042;28;20021;-57
2021/12/03 01:05:27;;;;;;;137.93;70.13;;;25.80;87.40;;;;;;5074174;28;20029;-59
2021/12/03 01:07:54;;;;;;;153.10;75.80;;;25.70;87.60;;;;;;5074395;28;20025;-55
2021/12/03 01:10:23;;;;;;;127.72;66.72;;;25.70;87.80;;;;;;5075184;28;20028;-56
2021/12/03 01:12:50;;;;;;;139.88;71.65;;;25.70;88.00;;;;;;5074621;28;20032;-57
2021/12/03 01:15:23;;;;;;;129.95;66.22;;;25.60;87.90;;;;;;5074422;28;20111;-58
2021/12/03 01:17:51;;;;;;;147.93;72.97;;;25.60;88.30;;;;;;5074365;28;20042;-63
2021/12/03 01:20:19;;;;;;;135.10;67.60;;;25.60;88.20;;;;;;5073720;28;20321;-60
2021/12/03 01:22:49;;;;;;;125.20;63.15;;;25.60;88.70;;;;;;5074211;28;20438;-58
2021/12/03 01:25:18;;;;;;;127.82;63.40;;;25.60;88.50;;;;;;5074117;28;20017;-62
2021/12/03 01:27:47;;;;;;;126.47;64.53;;;25.60;88.60;;;;;;5074347;28;20105;-56
2021/12/03 01:30:17;;;;;;;122.68;62.50;;;25.60;88.70;;;;;;5073994;28;20111;-57
2021/12/03 01:32:45;;;;;;;115.57;59.72;;;25.60;88.80;;;;;;5074060;28;20098;-57
2021/12/03 01:35:13;;;;;;;128.45;64.97;;;25.60;88.80;;;;;;5073964;28;20028;-60
2021/12/03 01:37:42;;;;;;;119.07;60.17;;;25.60;89.10;;;;;;5074251;28;20024;-59
2021/12/03 01:40:12;;;;;;;113.03;57.65;;;25.50;89.20;;;;;;5073780;28;20095;-58
2021/12/03 01:42:42;;;;;;;114.18;61.08;;;25.50;89.30;;;;;;5073363;28;20484;-55
2021/12/03 01:45:11;;;;;;;115.05;56.90;;;25.50;89.50;;;;;;5073954;28;20468;-56
2021/12/03 01:47:40;;;;;;;102.22;51.10;;;25.50;89.60;;;;;;5073737;28;20028;-54
2021/12/03 01:50:08;;;;;;;113.00;58.45;;;25.50;89.60;;;;;;5073436;28;20027;-60
2021/12/03 01:52:35;;;;;;;95.72;50.72;;;25.50;89.70;;;;;;5073761;28;20116;-57
2021/12/03 01:55:04;;;;;;;107.55;55.20;;;25.50;89.60;;;;;;5073420;28;20072;-60
2021/12/03 01:57:31;;;;;;;106.03;55.50;;;25.50;89.70;;;;;;5073887;28;20043;-55
2021/12/03 01:59:59;;;;;;;108.03;53.25;;;25.50;89.60;;;;;;5073288;28;20109;-59
2021/12/03 02:02:28;;;;;;;95.80;49.30;;;25.50;89.50;;;;;;5073412;28;20053;-53
2021/12/03 02:05:01;;;;;;;99.35;52.78;;;25.40;89.70;;;;;;5073701;28;20436;-61
2021/12/03 02:07:28;;;;;;;92.38;49.13;;;25.40;90.00;;;;;;5073336;28;20027;-57
2021/12/03 02:09:56;;;;;;;81.78;44.70;;;25.40;90.10;;;;;;5072652;28;20036;-58
2021/12/03 02:12:23;;;;;;;88.95;47.13;;;25.30;89.90;;;;;;5073171;28;20174;-58
2021/12/03 02:14:51;;;;;;;82.15;44.17;;;25.40;90.00;;;;;;5072357;28;20584;-55
2021/12/03 02:17:18;;;;;;;91.80;43.65;;;25.40;90.00;;;;;;5073412;28;20039;-57
2021/12/03 02:19:46;;;;;;;77.60;40.88;;;25.30;90.00;;;;;;5073478;28;20031;-60
2021/12/03 02:22:13;;;;;;;82.28;44.25;;;25.30;90.00;;;;;;5072826;28;20166;-57
2021/12/03 02:24:41;;;;;;;83.03;42.92;;;25.30;90.20;;;;;;5072969;28;20043;-54
2021/12/03 02:27:08;;;;;;;77.57;40.80;;;25.30;90.20;;;;;;5072698;28;20066;-56
2021/12/03 02:29:36;;;;;;;86.03;44.35;;;25.20;90.20;;;;;;5071895;28;20028;-57
2021/12/03 02:32:03;;;;;;;74.82;40.60;;;25.30;90.40;;;;;;5072723;28;20111;-56
2021/12/03 02:34:31;;;;;;;78.40;40.60;;;25.20;90.40;;;;;;5072688;28;20025;-57
2021/12/03 02:36:58;;;;;;;72.63;36.45;;;25.20;90.30;;;;;;5071277;28;20071;-56
2021/12/03 02:39:25;;;;;;;62.35;35.25;;;25.30;90.20;;;;;;5072513;28;20032;-56
2021/12/03 02:41:53;;;;;;;72.05;36.60;;;25.30;90.30;;;;;;5072278;28;20056;-57
2021/12/03 02:44:21;;;;;;;70.53;35.55;;;25.30;90.30;;;;;;5070538;28;20032;-56
2021/12/03 02:46:48;;;;;;;65.55;33.72;;;25.30;90.30;;;;;;5071951;28;20077;-54
2021/12/03 02:49:16;;;;;;;65.13;34.78;;;25.30;90.40;;;;;;5072082;28;20024;-55
2021/12/03 02:51:44;;;;;;;64.28;33.30;;;25.20;90.40;;;;;;5072335;28;20589;-57
2021/12/03 02:54:12;;;;;;;59.65;32.08;;;25.20;90.30;;;;;;5072449;28;20328;-59
2021/12/03 02:56:39;;;;;;;66.50;34.05;;;25.20;90.40;;;;;;5073177;28;20016;-57
2021/12/03 02:59:07;;;;;;;61.75;32.85;;;25.20;90.50;;;;;;5073136;28;20360;-52
2021/12/03 03:01:34;;;;;;;52.30;28.92;;;25.30;90.40;;;;;;5072838;28;20039;-59
2021/12/03 03:04:02;;;;;;;53.83;29.10;;;25.30;90.30;;;;;;5072378;28;20390;-56
2021/12/03 03:06:30;;;;;;;54.88;29.33;;;25.30;90.30;;;;;;5071992;28;20029;-60
2021/12/03 03:08:57;;;;;;;56.13;28.95;;;25.30;90.30;;;;;;5072794;28;20025;-59
2021/12/03 03:11:25;;;;;;;50.80;27.25;;;25.30;90.30;;;;;;5072698;28;20028;-57
2021/12/03 03:13:52;;;;;;;52.20;29.10;;;25.30;90.30;;;;;;5072745;28;20127;-57
2021/12/03 03:16:20;;;;;;;51.97;28.17;;;25.30;90.40;;;;;;5072666;28;20023;-55
2021/12/03 03:18:47;;;;;;;52.95;27.73;;;25.20;90.40;;;;;;5072635;28;20475;-57
2021/12/03 03:21:15;;;;;;;56.30;26.13;;;25.20;90.40;;;;;;5072541;28;20425;-58
2021/12/03 03:23:42;;;;;;;53.70;28.90;;;25.20;90.30;;;;;;5072297;28;20031;-59
2021/12/03 03:26:10;;;;;;;55.72;28.42;;;25.20;90.50;;;;;;5072336;28;20051;-56
2021/12/03 03:28:39;;;;;;;54.03;28.27;;;25.20;90.60;;;;;;5072528;28;20641;-54
2021/12/03 03:31:07;;;;;;;50.58;26.02;;;25.20;90.60;;;;;;5070871;28;20021;-58
2021/12/03 03:33:35;;;;;;;41.58;24.85;;;25.20;90.60;;;;;;5072456;28;20394;-59
2021/12/03 03:36:03;;;;;;;49.97;25.88;;;25.20;90.50;;;;;;5072369;28;20024;-60
2021/12/03 03:38:30;;;;;;;52.45;27.67;;;25.20;90.60;;;;;;5071775;28;20033;-58
2021/12/03 03:40:58;;;;;;;46.90;25.27;;;25.20;90.60;;;;;;5072247;28;20025;-58
2021/12/03 03:43:25;;;;;;;44.80;24.38;;;25.20;90.60;;;;;;5072445;28;20044;-54
2021/12/03 03:45:53;;;;;;;41.47;22.48;;;25.20;90.50;;;;;;5072066;28;20207;-57
2021/12/03 03:48:20;;;;;;;44.75;23.45;;;25.20;90.50;;;;;;5071308;28;20032;-58
2021/12/03 03:50:48;;;;;;;47.85;24.10;;;25.20;90.50;;;;;;5071415;28;20382;-56
2021/12/03 03:53:15;;;;;;;42.25;23.63;;;25.10;90.50;;;;;;5072007;28;20547;-60
2021/12/03 03:55:43;;;;;;;46.65;22.80;;;25.10;90.70;;;;;;5072515;28;20068;-59
2021/12/03 03:58:10;;;;;;;39.70;22.38;;;25.10;90.70;;;;;;5071492;28;20108;-58
2021/12/03 04:00:43;;;;;;;42.90;22.55;;;25.00;90.70;;;;;;5065984;28;20032;-57
2021/12/03 04:03:11;;;;;;;37.38;21.63;;;25.00;91.10;;;;;;5072041;28;20064;-59
2021/12/03 04:05:39;;;;;;;39.50;21.60;;;25.00;91.00;;;;;;5072162;28;20028;-58
2021/12/03 04:08:08;;;;;;;38.85;20.80;;;24.90;91.00;;;;;;5071462;28;20372;-59
2021/12/03 04:10:36;;;;;;;30.73;18.17;;;24.90;91.00;;;;;;5071866;28;20031;-59
2021/12/03 04:13:04;;;;;;;34.95;19.42;;;24.90;91.10;;;;;;5071885;28;20032;-58
2021/12/03 04:15:31;;;;;;;38.88;19.70;;;24.80;91.20;;;;;;5072152;28;20339;-58
2021/12/03 04:17:59;;;;;;;35.92;18.50;;;24.80;91.20;;;;;;5071465;28;20032;-57
2021/12/03 04:20:27;;;;;;;32.38;17.58;;;24.80;91.20;;;;;;5054267;28;20021;-59
2021/12/03 04:22:54;;;;;;;33.20;17.00;;;24.70;91.30;;;;;;5072022;28;20434;-57
2021/12/03 04:25:24;;;;;;;28.67;15.27;;;24.70;91.30;;;;;;5071900;28;20029;-60
2021/12/03 04:27:52;;;;;;;25.33;13.65;;;24.70;91.30;;;;;;5071701;28;20021;-59
2021/12/03 04:30:24;;;;;;;28.77;13.95;;;24.60;91.30;;;;;;5071844;28;20033;-58
2021/12/03 04:32:53;;;;;;;24.67;13.75;;;24.50;91.30;;;;;;5074009;28;20143;-57
2021/12/03 04:35:21;;;;;;;23.23;13.02;;;24.50;91.40;;;;;;5075954;28;20025;-57
2021/12/03 04:37:48;;;;;;;24.52;14.00;;;24.50;91.40;;;;;;5075552;28;20103;-60
2021/12/03 04:40:17;;;;;;;24.90;14.52;;;24.40;91.50;;;;;;5075401;28;20074;-56
2021/12/03 04:42:45;;;;;;;25.58;12.98;;;24.30;91.50;;;;;;5075473;28;20024;-59
2021/12/03 04:45:18;;;;;;;23.75;13.98;;;24.30;91.60;;;;;;5075266;28;20447;-60
2021/12/03 04:47:47;;;;;;;25.85;12.32;;;24.30;91.60;;;;;;5075420;28;20380;-56
2021/12/03 04:50:16;;;;;;;22.95;13.35;;;24.20;91.60;;;;;;5074982;28;20016;-55
2021/12/03 04:52:43;;;;;;;21.63;12.93;;;24.20;91.70;;;;;;5075058;28;20124;-58
2021/12/03 04:55:11;;;;;;;18.45;11.10;;;24.20;91.60;;;;;;5074917;28;20047;-58
2021/12/03 04:57:39;;;;;;;23.58;13.27;;;24.10;91.60;;;;;;5075178;28;20051;-56
2021/12/03 05:00:11;;;;;;;22.48;12.38;;;24.10;91.80;;;;;;5073328;28;20028;-59
2021/12/03 05:02:38;;;;;;;25.83;12.48;;;24.10;91.90;;;;;;5074512;28;20058;-59
2021/12/03 05:05:06;;;;;;;21.52;12.40;;;24.00;91.90;;;;;;5074514;28;20037;-59
2021/12/03 05:10:06;;;;;;;25.38;12.57;;;24.00;91.80;;;;;;5074666;28;20025;-55
2021/12/03 05:12:33;;;;;;;23.33;13.68;;;24.00;91.90;;;;;;5074689;28;20043;-58
2021/12/03 05:15:01;;;;;;;18.20;11.57;;;23.90;91.90;;;;;;5074963;28;20036;-59
2021/12/03 05:17:28;;;;;;;21.25;10.98;;;23.90;91.70;;;;;;5074583;28;20514;-59
2021/12/03 05:19:55;;;;;;;21.77;12.35;;;23.90;91.80;;;;;;5074552;28;20032;-57
2021/12/03 05:22:23;;;;;;;24.08;12.60;;;23.90;91.90;;;;;;5074476;28;20094;-58
2021/12/03 05:24:50;;;;;;;21.92;11.85;;;23.80;92.00;;;;;;5074807;28;20025;-60
2021/12/03 05:27:19;;;;;;;21.98;11.57;;;23.80;91.90;;;;;;5074467;28;20025;-58
2021/12/03 05:29:49;;;;;;;22.00;13.10;;;23.80;91.90;;;;;;5074740;28;20063;-58
2021/12/03 05:32:19;;;;;;;24.15;12.95;;;23.80;92.10;;;;;;5073862;28;20037;-57
2021/12/03 05:34:46;;;;;;;23.85;12.20;;;23.80;92.30;;;;;;5074829;28;20127;-56
2021/12/03 05:37:13;;;;;;;21.35;11.73;;;23.80;92.20;;;;;;5073937;28;20028;-60
2021/12/03 05:39:41;;;;;;;18.73;11.70;;;23.80;92.20;;;;;;5074450;28;20043;-60
2021/12/03 05:42:09;;;;;;;20.10;12.25;;;23.80;92.10;;;;;;5073609;28;20024;-54
2021/12/03 05:44:36;;;;;;;23.35;12.45;;;23.70;92.30;;;;;;5073199;28;20060;-59
2021/12/03 05:47:05;;;;;;;25.63;13.40;;;23.70;92.20;;;;;;5074051;28;20020;-61
2021/12/03 05:49:32;;;;;;;23.25;12.52;;;23.70;92.40;;;;;;5073742;28;20426;-57
2021/12/03 05:51:59;;;;;;;20.08;10.52;;;23.70;92.10;;;;;;5073996;28;20033;-55
2021/12/03 05:54:28;;;;;;;24.35;12.10;;;23.70;92.00;;;;;;5073691;28;20059;-61
2021/12/03 05:56:55;;;;;;;17.20;10.43;;;23.70;92.00;;;;;;5074021;28;20028;-59
2021/12/03 05:59:23;;;;;;;15.52;10.55;;;23.70;91.90;;;;;;5073683;28;20524;-59
2021/12/03 06:01:51;;;;;;;18.42;11.05;;;23.70;92.00;;;;;;5072120;28;20042;-57
2021/12/03 06:04:18;;;;;;;20.20;10.70;;;23.70;91.90;;;;;;5073739;28;20476;-57
2021/12/03 06:06:46;;;;;;;21.65;10.23;;;23.70;92.00;;;;;;5073767;28;20036;-60
2021/12/03 06:09:13;;;;;;;20.30;10.68;;;23.70;92.00;;;;;;5072399;28;20024;-61
2021/12/03 06:11:41;;;;;;;19.40;10.73;;;23.70;92.00;;;;;;5073207;28;20035;-55
2021/12/03 06:14:09;;;;;;;22.23;10.73;;;23.70;92.00;;;;;;5073496;28;20033;-59
2021/12/03 06:16:36;;;;;;;20.58;10.18;;;23.60;92.00;;;;;;5073622;28;20032;-58
2021/12/03 06:19:04;;;;;;;19.38;10.38;;;23.60;92.00;;;;;;5073503;28;20108;-58
2021/12/03 06:21:32;;;;;;;17.13;9.30;;;23.60;92.00;;;;;;5073947;28;20030;-59
2021/12/03 06:23:59;;;;;;;17.38;10.15;;;23.60;92.00;;;;;;5073730;28;20024;-56
2021/12/03 06:26:26;;;;;;;19.52;11.20;;;23.60;92.20;;;;;;5073725;28;20024;-61
2021/12/03 06:28:54;;;;;;;20.33;10.50;;;23.60;92.40;;;;;;5073757;28;20024;-60
2021/12/03 06:31:21;;;;;;;20.92;10.98;;;23.60;92.40;;;;;;5073316;28;20322;-58
2021/12/03 06:33:50;;;;;;;18.42;10.98;;;23.50;92.50;;;;;;5073284;28;20040;-59
2021/12/03 06:36:17;;;;;;;21.05;10.82;;;23.50;92.60;;;;;;5072198;28;20024;-57
2021/12/03 06:38:45;;;;;;;19.65;11.13;;;23.50;92.60;;;;;;5073049;28;20051;-57
2021/12/03 06:41:12;;;;;;;21.98;11.55;;;23.50;92.60;;;;;;5072772;28;20563;-60
2021/12/03 06:43:39;;;;;;;18.55;11.30;;;23.50;92.70;;;;;;5073312;28;20499;-56
2021/12/03 06:46:07;;;;;;;20.20;10.93;;;23.50;92.60;;;;;;5073201;28;20027;-64
2021/12/03 06:48:34;;;;;;;21.67;11.73;;;23.50;92.70;;;;;;5073180;28;20025;-53
2021/12/03 06:51:02;;;;;;;20.67;11.00;;;23.50;92.70;;;;;;5073023;28;20358;-57
2021/12/03 06:54:23;;;;;;;18.75;11.18;;;23.50;92.70;;;;;;5070884;28;20057;-62
2021/12/03 06:56:22;;;;;;;17.42;10.10;;;23.50;92.70;;;;;;5072097;28;20525;-59
2021/12/03 06:58:49;;;;;;;20.20;11.60;;;23.40;92.70;;;;;;5073043;28;20016;-63
2021/12/03 07:01:17;;;;;;;19.30;9.80;;;23.50;92.70;;;;;;5081848;28;20019;-61
2021/12/03 07:03:45;;;;;;;18.73;9.93;;;23.40;92.70;;;;;;5092885;28;20058;-58
2021/12/03 07:06:13;;;;;;;20.13;11.00;;;23.40;92.60;;;;;;5092582;28;20059;-57
2021/12/03 07:08:40;;;;;;;18.13;10.55;;;23.40;92.70;;;;;;5092996;28;20471;-54
2021/12/03 07:11:07;;;;;;;17.75;11.05;;;23.40;92.70;;;;;;5092647;28;20077;-58
2021/12/03 07:13:35;;;;;;;20.92;11.27;;;23.40;92.60;;;;;;5092805;28;20370;-59
2021/12/03 07:16:05;;;;;;;17.10;9.57;;;23.40;92.70;;;;;;5091909;28;20020;-57
2021/12/03 07:18:32;;;;;;;21.70;10.30;;;23.40;92.70;;;;;;5091928;28;20028;-58
2021/12/03 07:21:00;;;;;;;19.90;10.48;;;23.40;92.70;;;;;;5092553;28;20028;-57
2021/12/03 07:23:27;;;;;;;20.20;9.23;;;23.40;92.80;;;;;;5092632;28;20051;-59
2021/12/03 07:25:54;;;;;;;17.77;9.65;;;23.30;92.60;;;;;;5092736;28;20027;-58
2021/12/03 07:28:22;;;;;;;18.15;10.02;;;23.30;92.70;;;;;;5092655;28;20380;-57
2021/12/03 07:30:49;;;;;;;17.58;9.50;;;23.30;92.70;;;;;;5091538;28;20020;-60
2021/12/03 07:33:18;;;;;;;13.57;8.23;;;23.30;92.80;;;;;;5092282;28;20039;-54
2021/12/03 07:35:46;;;;;;;15.45;9.15;;;23.20;92.70;;;;;;5092637;28;20153;-58
2021/12/03 07:38:17;;;;;;;14.80;8.30;;;23.20;92.70;;;;;;5092340;28;20135;-58
2021/12/03 07:40:51;;;;;;;16.70;8.48;;;23.20;92.60;;;;;;5092624;28;20020;-60
2021/12/03 07:43:19;;;;;;;19.27;9.50;;;23.20;92.60;;;;;;5091019;28;20097;-57
2021/12/03 07:45:48;;;;;;;17.73;8.65;;;23.20;92.70;;;;;;5092024;28;20394;-60
2021/12/03 07:48:16;;;;;;;12.98;8.00;;;23.20;92.90;;;;;;5092033;28;20035;-58
2021/12/03 07:50:44;;;;;;;16.80;8.93;;;23.20;92.70;;;;;;5092277;28;20380;-64
2021/12/03 07:53:14;;;;;;;15.40;8.10;;;23.20;92.80;;;;;;5092522;28;20039;-60
2021/12/03 07:55:43;;;;;;;14.90;7.90;;;23.20;92.80;;;;;;5092071;28;20048;-58
2021/12/03 07:58:10;;;;;;;15.85;8.50;;;23.10;92.70;;;;;;5092350;28;20032;-60
2021/12/03 08:00:38;;;;;;;15.85;8.63;;;23.10;92.80;;;;;;5092501;28;20020;-59
2021/12/03 08:03:06;;;;;;;13.10;7.50;;;23.10;92.80;;;;;;5092382;28;20048;-56
2021/12/03 08:05:33;;;;;;;17.83;8.38;;;23.10;92.80;;;;;;5092560;28;20020;-59
2021/12/03 08:08:00;;;;;;;13.48;7.70;;;23.10;92.70;;;;;;5095585;28;20032;-58
2021/12/03 08:10:28;;;;;;;14.90;8.18;;;23.10;92.90;;;;;;5096076;28;20024;-57
2021/12/03 08:12:56;;;;;;;12.40;7.30;;;23.10;92.90;;;;;;5096388;28;20056;-59
2021/12/03 08:15:23;;;;;;;13.63;7.72;;;23.10;92.90;;;;;;5096604;28;20027;-59
2021/12/03 08:17:52;;;;;;;17.30;8.52;;;23.10;92.90;;;;;;5096388;28;20045;-58
2021/12/03 08:20:19;;;;;;;14.50;7.35;;;23.00;92.80;;;;;;5096344;28;20121;-57
2021/12/03 08:22:46;;;;;;;15.20;8.02;;;23.00;92.90;;;;;;5096363;28;20040;-57
2021/12/03 08:25:14;;;;;;;16.75;7.95;;;23.00;92.90;;;;;;5094532;28;20394;-58
2021/12/03 08:27:42;;;;;;;16.83;8.60;;;23.00;92.90;;;;;;5095995;28;20032;-59
2021/12/03 08:30:11;;;;;;;13.70;7.85;;;23.00;92.90;;;;;;5095736;28;20028;-57
2021/12/03 08:32:38;;;;;;;14.50;8.13;;;22.90;92.90;;;;;;5095614;28;20036;-58
2021/12/03 08:35:06;;;;;;;14.90;7.95;;;22.90;92.90;;;;;;5094372;28;20035;-59
2021/12/03 08:37:33;;;;;;;15.88;7.70;;;22.90;92.90;;;;;;5095864;28;20407;-59
2021/12/03 08:40:01;;;;;;;14.57;7.30;;;22.90;93.00;;;;;;5095427;28;20027;-59
2021/12/03 08:42:28;;;;;;;15.38;8.55;;;22.90;92.90;;;;;;5095982;28;20497;-58
2021/12/03 08:44:58;;;;;;;13.70;7.35;;;22.90;92.90;;;;;;5095872;28;20107;-59
2021/12/03 08:47:26;;;;;;;17.00;8.07;;;22.80;92.90;;;;;;5095357;28;20055;-59
2021/12/03 08:49:57;;;;;;;16.20;7.53;;;22.80;93.00;;;;;;5094421;28;20107;-58
2021/12/03 08:54:53;;;;;;;14.45;7.82;;;22.80;93.00;;;;;;5095659;28;20487;-59
2021/12/03 08:57:26;;;;;;;15.30;7.68;;;22.70;93.00;;;;;;5095627;28;20479;-59
2021/12/03 08:59:56;;;;;;;15.52;7.45;;;22.80;93.00;;;;;;5095037;28;20060;-59
2021/12/03 09:02:24;;;;;;;13.40;7.80;;;22.70;92.90;;;;;;5095470;28;20020;-59
2021/12/03 09:04:51;;;;;;;13.88;7.97;;;22.70;93.00;;;;;;5095552;28;20479;-58
2021/12/03 09:07:19;;;;;;;14.80;8.13;;;22.70;93.10;;;;;;5095005;28;20063;-60
2021/12/03 09:09:46;;;;;;;13.85;8.02;;;22.60;93.10;;;;;;5095396;28;20020;-60
2021/12/03 09:12:15;;;;;;;15.68;7.40;;;22.70;93.10;;;;;;5095158;28;20111;-54
2021/12/03 09:14:49;;;;;;;18.85;8.27;;;22.60;93.10;;;;;;5095123;28;20027;-58
2021/12/03 09:17:33;;;;;;;12.25;7.45;;;22.60;93.00;;;;;;5094906;28;20032;-59
2021/12/03 09:20:46;;;;;;;19.63;8.02;;;22.60;93.10;;;;;;5094891;28;20032;-54
2021/12/03 09:22:58;;;;;;;16.35;8.43;;;22.60;93.10;;;;;;5091928;28;20024;-59
2021/12/03 09:25:34;;;;;;;12.13;6.72;;;22.60;93.10;;;;;;5094923;28;20039;-58
2021/12/03 09:28:05;;;;;;;12.90;6.93;;;22.50;93.00;;;;;;5094802;28;20047;-55
2021/12/03 09:30:37;;;;;;;14.98;7.55;;;22.60;93.00;;;;;;5094901;28;20036;-58
2021/12/03 09:33:07;;;;;;;15.55;7.45;;;22.50;93.00;;;;;;5094614;28;20072;-58
2021/12/03 09:35:39;;;;;;;13.35;7.32;;;22.50;93.50;;;;;;5093417;28;20115;-58
2021/12/03 09:38:06;;;;;;;12.23;7.57;;;22.50;93.40;;;;;;5094703;28;20027;-58
2021/12/03 09:40:35;;;;;;;13.93;7.43;;;22.50;93.30;;;;;;5094809;28;20103;-58
2021/12/03 09:43:05;;;;;;;15.30;7.93;;;22.50;93.50;;;;;;5094807;28;20032;-61
2021/12/03 09:45:33;;;;;;;13.85;7.68;;;22.50;93.70;;;;;;5094793;28;20035;-60
2021/12/03 09:48:06;;;;;;;14.85;7.18;;;22.50;93.50;;;;;;5093112;28;20028;-59
2021/12/03 09:50:33;;;;;;;14.05;6.93;;;22.50;93.50;;;;;;5094626;28;20032;-55
2021/12/03 09:55:46;;;;;;;12.80;7.18;;;22.50;93.60;;;;;;5094898;28;20039;-59
2021/12/03 09:58:44;;;;;;;13.00;6.78;;;22.50;93.60;;;;;;5094218;28;20103;-57
2021/12/03 10:01:15;;;;;;;12.80;6.53;;;22.50;93.60;;;;;;5083168;28;20399;-60
2021/12/03 10:03:57;;;;;;;13.68;7.38;;;22.50;93.60;;;;;;5074090;28;20033;-58
2021/12/03 10:39:34;;;;;;;11.45;6.65;;;22.40;93.50;;;;;;5073692;28;20031;-58
2021/12/03 10:42:16;;;;;;;10.95;6.53;;;22.40;93.50;;;;;;5071577;28;20529;-60
2021/12/03 10:47:47;;;;;;;12.13;6.18;;;22.40;93.40;;;;;;5073352;28;20391;-60
2021/12/03 10:50:30;;;;;;;10.45;5.97;;;22.40;93.40;;;;;;5071914;28;20378;-56
2021/12/03 11:37:02;;;;;;;9.95;5.25;;;22.30;93.10;;;;;;5071527;28;20104;-60
2021/12/03 11:39:53;;;;;;;14.38;5.28;;;22.30;93.10;;;;;;5071627;28;20167;-60
2021/12/03 11:46:12;;;;;;;10.82;5.70;;;22.30;93.10;;;;;;5049231;28;20403;-56
2021/12/03 12:48:09;;;;;;;9.70;4.47;;;22.10;92.90;;;;;;5072329;28;20590;-59
2021/12/03 13:17:57;;;;;;;9.13;4.05;;;22.10;92.90;;;;;;5075324;28;20036;-58
2021/12/03 13:23:33;;;;;;;7.53;3.97;;;22.10;92.90;;;;;;5075480;28;20078;-58
2021/12/03 13:56:14;;;;;;;6.75;3.60;;;22.00;92.90;;;;;;5069390;28;20036;-59
2021/12/03 14:41:10;;;;;;;7.13;3.28;;;21.90;92.90;;;;;;5079035;28;20032;-57
2021/12/03 14:43:53;;;;;;;;;;;21.90;92.90;;;;;;5068128;28;20033;-56
2021/12/03 14:57:15;;;;;;;8.88;3.70;;;21.80;92.90;;;;;;5070850;28;20043;-57
2021/12/03 15:00:25;;;;;;;5.13;2.90;;;21.80;92.90;;;;;;5063555;28;20043;-58
2021/12/03 15:05:53;;;;;;;7.57;3.10;;;21.90;92.90;;;;;;5069275;28;20020;-59
2021/12/03 15:08:50;;;;;;;7.47;3.35;;;21.90;92.90;;;;;;5067506;28;20673;-57
2021/12/03 15:22:07;;;;;;;9.68;3.60;;;21.90;92.90;;;;;;5068665;28;20477;-59
2021/12/03 15:27:49;;;;;;;8.00;3.58;;;21.80;92.90;;;;;;5069399;28;20031;-58
2021/12/03 15:33:12;;;;;;;9.57;3.38;;;21.80;92.90;;;;;;5073277;28;20039;-58
2021/12/03 15:35:57;;;;;;;5.25;2.67;;;21.80;92.80;;;;;;5072903;28;20032;-58
2021/12/03 15:57:45;;;;;;;6.57;3.05;;;21.80;92.90;;;;;;5071968;28;20464;-59
2021/12/03 16:08:32;;;;;;;7.97;3.50;;;21.80;92.90;;;;;;5072954;28;20048;-55
2021/12/03 16:11:22;;;;;;;9.18;3.28;;;21.80;93.20;;;;;;5072822;28;20047;-59
2021/12/03 16:17:05;;;;;;;6.07;2.60;;;21.70;92.90;;;;;;5072930;28;20040;-62
2021/12/03 16:22:39;;;;;;;7.28;3.08;;;21.80;92.90;;;;;;5073418;28;20502;-59
2021/12/03 16:43:33;;;;;;;5.93;2.40;;;21.70;92.90;;;;;;5073494;28;20056;-57
2021/12/03 16:47:03;;;;;;;7.40;2.83;;;21.70;92.90;;;;;;5076351;28;20024;-55
2021/12/03 16:52:21;;;;;;;5.85;3.10;;;21.70;92.90;;;;;;5075879;28;20505;-59
2021/12/03 16:54:54;;;;;;;7.03;3.35;;;21.60;92.90;;;;;;5075618;28;20099;-57
2021/12/03 16:57:28;;;;;;;8.32;3.15;;;21.70;92.90;;;;;;5075941;28;20463;-57
2021/12/03 16:59:57;;;;;;;7.35;3.20;;;21.60;92.90;;;;;;5075665;28;20024;-58
2021/12/03 17:02:42;;;;;;;10.80;3.38;;;21.70;92.90;;;;;;5075729;28;20031;-57
2021/12/03 17:15:53;;;;;;;9.95;3.00;;;21.70;92.90;;;;;;5075389;28;20016;-57
2021/12/03 17:29:27;;;;;;;6.05;2.45;;;21.60;92.90;;;;;;5075587;28;20044;-60
2021/12/03 17:44:32;;;;;;;9.52;3.10;;;21.60;92.90;;;;;;5075576;28;20173;-60
2021/12/03 17:48:45;;;;;;;7.55;3.60;;;21.60;92.90;;;;;;5072921;28;20043;-59
2021/12/03 17:51:40;;;;;;;;;;;;;;;;;;;;;
2021/12/03 17:56:54;;;;;;;8.30;2.95;;;21.60;93.00;;;;;;5073568;28;20055;-60
2021/12/03 17:59:43;;;;;;;6.30;2.38;;;21.50;92.90;;;;;;5075109;28;20082;-59
2021/12/03 18:05:07;;;;;;;5.60;2.60;;;21.60;93.00;;;;;;5074834;28;20422;-58
2021/12/03 18:13:31;;;;;;;7.97;2.97;;;21.60;92.90;;;;;;5074697;28;20129;-58
2021/12/03 18:56:29;;;;;;;5.57;2.30;;;21.50;92.90;;;;;;5073225;28;20032;-57
2021/12/03 18:59:00;;;;;;;6.20;2.58;;;21.60;93.00;;;;;;5073405;28;20036;-57
2021/12/03 19:01:34;;;;;;;7.53;2.42;;;21.50;92.90;;;;;;5073239;28;20391;-59
2021/12/03 19:04:24;;;;;;;5.63;2.72;;;21.50;92.90;;;;;;5073066;28;20024;-57
2021/12/03 19:06:59;;;;;;;7.63;2.30;;;21.50;92.90;;;;;;5073294;28;20422;-58
2021/12/03 19:09:27;;;;;;;4.40;1.92;;;21.50;92.90;;;;;;5073492;28;20024;-58
2021/12/03 19:12:07;;;;;;;5.13;2.58;;;21.60;92.90;;;;;;5072309;28;20028;-56
2021/12/03 19:14:42;;;;;;;7.82;2.40;;;21.60;92.90;;;;;;5071398;28;20028;-59
2021/12/03 19:17:09;;;;;;;5.80;2.63;;;21.50;92.90;;;;;;5073305;28;20390;-60
2021/12/03 19:19:42;;;;;;;5.13;2.20;;;21.60;92.90;;;;;;5073214;28;20020;-60
2021/12/03 19:22:10;;;;;;;5.75;2.45;;;21.50;92.90;;;;;;5073297;28;20025;-58
2021/12/03 19:24:37;;;;;;;5.47;2.15;;;21.60;92.90;;;;;;5073246;28;20020;-58
2021/12/03 19:27:05;;;;;;;7.05;2.88;;;21.50;92.80;;;;;;5072894;28;20051;-59
2021/12/03 19:29:34;;;;;;;6.50;2.55;;;21.60;92.90;;;;;;5072832;28;20024;-58
2021/12/03 19:32:01;;;;;;;6.10;2.67;;;21.50;92.90;;;;;;5071281;28;20520;-58
2021/12/03 19:34:29;;;;;;;6.35;2.28;;;21.50;92.90;;;;;;5072741;28;20472;-57
2021/12/03 19:36:57;;;;;;;6.57;2.78;;;21.60;92.90;;;;;;5072864;28;20534;-59
2021/12/03 19:39:25;;;;;;;5.60;2.10;;;21.50;92.90;;;;;;5072805;28;20036;-57
2021/12/03 19:44:31;;;;;;;8.07;2.47;;;21.60;92.90;;;;;;5072634;28;20051;-59
2021/12/03 19:46:58;;;;;;;6.18;2.25;;;21.50;92.80;;;;;;5072736;28;20021;-57
2021/12/03 19:52:00;;;;;;;6.55;2.33;;;21.60;92.90;;;;;;5072594;28;20054;-57
2021/12/03 19:54:28;;;;;;;6.00;2.40;;;21.50;92.80;;;;;;5072518;28;20121;-58
2021/12/03 19:56:56;;;;;;;6.50;2.33;;;21.60;92.80;;;;;;5072179;28;20051;-59
2021/12/03 19:59:23;;;;;;;5.28;2.50;;;21.60;92.80;;;;;;5072901;28;20029;-58